Latest Coastal Weather Observations for Norfolk Island

IDN60701

Issued at 11:02 pm EST Tuesday 28 June 2016 (issued every 10 minutes, with the page automatically refreshed every 10 minutes)

About coastal observations | Map of coastal stations | Coastal observations for NSW | Marine services | Other Formats
Station Details ID: 200288 Name: NORFOLK ISLAND AERO Lat: -29.04 Lon: 167.94 Height: 111.73 m
Data from the previous 72 hours. | See also: Recent months at Norfolk Island
Date/Time
EST
Temp
°C
Wind Pressure Rain since
9am
mm
Weather Cloud Vis
km
Sea
Height
m
Swell
Dir  Spd
kts
Gust
kts
hPa Trend Height
m
Period
s
Dir
28/11:00pm 18.4 W 12 18 1011.9 - 10.2 - Cloudy 10 - - - -
28/10:46pm 18.3 W 10 16 1012.0 - 10.2 - Partly cloudy 10 - - - -
28/10:30pm 18.4 W 11 17 1012.0 - 10.2 - Partly cloudy 10 - - - -
28/10:00pm 18.3 W 12 18 1012.2 - 10.2 - Partly cloudy 10 - - - -
28/09:30pm 18.3 W 11 17 1012.2 - 10.2 - Cloudy 10 - - - -
28/09:00pm 18.0 W 12 18 1012.2 - 10.2 - Cloudy 10 - - - -
28/08:30pm 18.1 WNW 10 16 1012.5 - 10.2 - Partly cloudy 10 - - - -
28/08:00pm 17.9 WNW 9 16 1012.3 - 10.2 Rain Mostly cloudy 10 - - - -
28/07:30pm 17.7 WNW 9 19 1012.4 - 10.2 - Partly cloudy 10 - - - -
28/07:24pm 17.6 WNW 9 18 1012.4 - 10.2 - Partly cloudy 9 - - - -
28/07:00pm 17.3 NW 8 17 1012.5 - 9.8 - Partly cloudy 10 - - - -
28/06:41pm 17.5 WNW 8 13 1012.6 - 9.4 - Partly cloudy 10 - - - -
28/06:30pm 17.5 NW 8 12 1012.5 - 9.2 - Partly cloudy 6 - - - -
28/06:11pm 17.5 WNW 9 15 1012.8 - 8.2 - Partly cloudy 6 - - - -
28/06:10pm 17.6 WNW 9 15 1012.9 - 8.0 - Partly cloudy 7 - - - -
28/06:01pm 17.6 WNW 9 15 1012.7 - 7.4 - Partly cloudy 7 - - - -
28/06:00pm 17.6 WNW 9 15 1012.7 - 7.4 - Partly cloudy 6 - - - -
28/05:37pm 17.6 W 9 15 1012.7 - 5.4 - Partly cloudy 6 - - - -
28/05:32pm 17.7 W 9 15 1012.6 - 5.2 - Cloudy 10 - - - -
28/05:30pm 17.6 W 10 15 1012.6 - 5.2 - Cloudy 10 - - - -
28/05:00pm 17.4 W 13 18 1012.6 - 3.8 Showers Cloudy 4 - - - -
28/04:51pm 17.6 W 13 18 1012.6 - 2.4 - Partly cloudy 6 - - - -
28/04:40pm 18.1 WNW 9 16 1012.4 - 2.0 - Partly cloudy 8 - - - -
28/04:30pm 19.2 NW 8 14 1012.3 - 1.4 - Partly cloudy 10 - - - -
28/04:03pm 19.2 NNW 9 19 1012.2 - 1.4 - Partly cloudy 10 - - - -
28/04:00pm 19.1 NNW 9 19 1012.2 - 1.4 - Partly cloudy 10 - - - -
28/03:30pm 18.8 N 12 21 1012.0 - 1.2 Showers Partly cloudy 9 - - - -
28/03:24pm 18.7 N 12 19 1011.9 - 1.2 Showers Partly cloudy 7 - - - -
28/03:00pm 19.5 N 12 20 1011.9 - 0.2 - Mostly clear 6 - - - -
28/02:30pm 20.0 N 12 18 1012.0 - 0.2 - Mostly clear 10 - - - -
28/02:00pm 20.2 N 13 22 1012.1 - 0.2 - Cloudy 10 - - - -
28/01:32pm 20.2 NNE 15 25 1012.1 - 0.2 - Partly cloudy 10 - - - -
28/01:30pm 20.2 NNE 14 25 1012.1 - 0.2 - Partly cloudy 10 - - - -
28/01:16pm 20.1 NNE 16 26 1012.2 - 0.2 - Partly cloudy 10 - - - -
28/01:00pm 20.1 N 13 20 1012.2 - 0.2 - Partly cloudy 10 - - - -
28/12:30pm 20.3 N 15 26 1012.5 - 0.2 - Partly cloudy 10 - - - -
28/12:20pm 20.5 N 15 28 1012.6 - 0.2 - Partly cloudy 10 - - - -
28/12:00pm 20.3 NNE 15 22 1012.9 - 0.2 - Mostly clear 10 - - - -
28/11:34am 20.2 NNE 16 26 1013.4 - 0.2 - Mostly clear 10 - - - -
28/11:30am 20.2 NNE 17 26 1013.4 - 0.2 - Mostly clear 10 - - - -
28/11:00am 20.1 N 15 24 1014.1 - 0.2 Rain Cloudy 10 - - - -
28/10:30am 20.2 NNE 11 20 1014.6 - 0.0 - Mostly clear 10 - - - -
28/10:00am 20.1 NNE 14 20 1015.3 - 0.0 - Partly cloudy 10 - - - -
28/09:30am 19.9 NNE 14 21 1015.9 - 0.0 - Mostly clear 10 - - - -
28/09:00am 19.7 NNE 14 20 1016.0 - 0.0 - Mostly clear 10 - - - -
28/08:30am 20.6 NNE 14 20 1016.3 - 0.0 - Mostly clear 10 - - - -
28/08:00am 20.4 NNE 11 17 1016.7 - 0.2 - Partly cloudy 10 - - - -
28/07:30am 19.7 N 9 18 1017.2 - 0.2 - Mostly clear 10 - - - -
28/07:00am 18.7 N 7 13 1017.2 - 0.2 - Partly cloudy 10 - - - -
28/06:30am 18.1 N 8 15 1017.1 - 0.2 - Partly cloudy 10 - - - -
28/06:00am 17.9 N 6 10 1017.0 - 0.2 - Partly cloudy 10 - - - -
28/05:30am 17.9 NNW 6 10 1017.1 - 0.2 - - 10 - - - -
28/05:00am 17.5 NNW 5 7 1017.1 - 0.2 - Cloudy 10 - - - -
28/04:30am 17.8 NW 5 9 1017.0 - 0.2 - Partly cloudy 10 - - - -
28/04:00am 17.2 NW 5 8 1017.0 - 0.2 - Partly cloudy 10 - - - -
28/03:30am 16.1 N 3 5 1016.7 - 0.2 - Partly cloudy 10 - - - -
28/03:16am 16.0 NW 4 6 1016.6 - 0.2 - Partly cloudy 10 - - - -
28/03:01am 16.5 NW 5 9 1016.9 - 0.2 - Partly cloudy 6 - - - -
28/03:00am 16.5 NW 5 9 1016.9 - 0.2 - Partly cloudy 7 - - - -
28/02:30am 17.1 NNW 4 6 1017.0 - 0.2 - Partly cloudy 10 - - - -
28/02:00am 16.4 NW 4 7 1017.1 - 0.2 - Partly cloudy 10 - - - -
28/01:30am 16.8 NW 5 7 1017.1 - 0.2 - Partly cloudy 10 - - - -
28/01:00am 16.7 N 5 8 1017.0 - 0.2 - Partly cloudy 10 - - - -
28/12:30am 16.3 NNE 5 6 1017.3 - 0.2 - Partly cloudy 10 - - - -
28/12:00am 16.0 NNW 4 7 1017.8 - 0.2 - Partly cloudy 10 - - - -
 
Date/Time
EST
Temp
°C
Wind Pressure Rain since
9am
mm
Weather Cloud Vis
km
Sea
Height
m
Swell
Dir  Spd
kts
Gust
kts
hPa Trend Height
m
Period
s
Dir
27/11:30pm 16.1 NNE 5 5 1017.9 - 0.2 - Partly cloudy 10 - - - -
27/11:00pm 15.3 NNE 5 6 1017.9 - 0.2 - Mostly clear 10 - - - -
27/10:30pm 16.8 NE 5 6 1017.9 - 0.2 - Partly cloudy 10 - - - -
27/10:00pm 16.4 NNE 5 6 1018.2 - 0.2 - Partly cloudy 10 - - - -
27/09:30pm 15.6 NNE 4 5 1018.5 - 0.2 - Partly cloudy 10 - - - -
27/09:00pm 16.3 NNE 5 5 1018.5 - 0.2 - Partly cloudy 10 - - - -
27/08:30pm 16.0 CALM 0 0 1018.3 - 0.2 - Cloudy 10 - - - -
27/08:00pm 14.9 CALM 0 0 1018.3 - 0.2 - Cloudy 10 - - - -
27/07:30pm 14.9 CALM 0 0 1018.5 - 0.2 - Partly cloudy 10 - - - -
27/07:00pm 15.8 SSW 4 4 1018.6 - 0.2 - Partly cloudy 10 - - - -
27/06:30pm 14.8 CALM 0 0 1018.6 - 0.2 - Partly cloudy 10 - - - -
27/06:00pm 15.0 CALM 0 0 1018.6 - 0.2 - - 10 - - - -
27/05:30pm 15.3 CALM 0 0 1018.4 - 0.2 - - 10 - - - -
27/05:00pm 15.5 CALM 0 0 1018.2 - 0.2 - - 10 - - - -
27/04:30pm 16.0 CALM 0 0 1017.8 - 0.2 - Partly cloudy 10 - - - -
27/04:00pm 16.3 CALM 0 0 1017.7 - 0.2 - Partly cloudy 10 - - - -
27/03:30pm 16.7 SSW 5 7 1017.5 - 0.2 - - 10 - - - -
27/03:00pm 17.6 SSW 9 11 1017.3 - 0.2 - Mostly clear 10 - - - -
27/02:30pm 18.9 WSW 7 10 1017.1 - 0.2 - Mostly clear 10 - - - -
27/02:00pm 19.2 WSW 8 11 1017.0 - 0.2 - Mostly clear 10 - - - -
27/01:30pm 19.3 WSW 9 11 1016.9 - 0.2 - Mostly clear 10 - - - -
27/01:00pm 19.2 WSW 10 13 1017.0 - 0.2 - Mostly clear 10 - - - -
27/12:30pm 18.5 WSW 9 13 1017.1 - 0.2 - Partly cloudy 10 - - - -
27/12:00pm 19.1 WSW 11 15 1017.3 - 0.2 - Partly cloudy 10 - - - -
27/11:30am 19.2 SW 11 14 1017.7 - 0.2 - Mostly clear 10 - - - -
27/11:00am 19.7 WSW 10 15 1018.1 - 0.2 Recent precip. Cloudy 10 - - - -
27/10:30am 19.5 WSW 11 15 1018.3 - 0.2 - Mostly clear 10 - - - -
27/10:00am 19.4 WSW 13 17 1018.6 - 0.0 - Mostly clear 10 - - - -
27/09:30am 19.6 W 12 16 1019.0 - 0.0 - Mostly clear 10 - - - -
27/09:00am 19.5 W 11 15 1018.9 - 0.0 - Mostly clear 10 - - - -
27/08:30am 18.7 W 10 15 1019.1 - 0.0 - Mostly clear 10 - - - -
27/08:00am 18.3 WSW 11 16 1018.9 - 0.2 - Mostly clear 10 - - - -
27/07:30am 17.5 WSW 10 16 1018.8 - 0.2 - Mostly clear 10 - - - -
27/07:00am 16.3 W 7 10 1018.6 - 0.2 - Mostly clear 10 - - - -
27/06:48am 16.1 WSW 12 20 1018.5 - 0.2 - Partly cloudy 6 - - - -
27/06:30am 17.7 SW 10 15 1018.2 - 0.2 - Partly cloudy 10 - - - -
27/06:00am 17.2 SW 10 14 1017.9 - 0.2 - Partly cloudy 10 - - - -
27/05:30am 17.2 WSW 11 18 1017.5 - 0.2 - Partly cloudy 10 - - - -
27/05:00am 17.0 WSW 10 17 1017.0 - 0.2 Drizzle Partly cloudy 10 - - - -
27/04:30am 15.6 WSW 6 9 1016.7 - 0.2 - Partly cloudy 10 - - - -
27/04:20am 15.4 SW 8 12 1016.6 - 0.2 - Partly cloudy 10 - - - -
27/04:06am 15.5 WSW 16 21 1016.6 - 0.2 - Partly cloudy 6 - - - -
27/04:00am 16.2 WSW 15 23 1016.4 - 0.2 - Partly cloudy 10 - - - -
27/03:30am 17.1 WSW 11 17 1016.0 - 0.2 - Partly cloudy 10 - - - -
27/03:00am 17.0 WSW 11 17 1016.1 - 0.2 - Partly cloudy 10 - - - -
27/02:30am 17.3 WSW 12 17 1016.1 - 0.2 - Partly cloudy 10 - - - -
27/02:00am 17.2 WSW 12 16 1015.9 - 0.2 - Cloudy 10 - - - -
27/01:30am 17.1 WSW 12 16 1015.9 - 0.2 - Partly cloudy 10 - - - -
27/01:00am 17.3 WSW 13 20 1016.1 - 0.2 - Partly cloudy 10 - - - -
27/12:30am 17.1 WSW 11 16 1015.5 - 0.2 - Partly cloudy 10 - - - -
27/12:00am 17.1 WSW 13 18 1015.6 - 0.2 - - 10 - - - -
 
Date/Time
EST
Temp
°C
Wind Pressure Rain since
9am
mm
Weather Cloud Vis
km
Sea
Height
m
Swell
Dir  Spd
kts
Gust
kts
hPa Trend Height
m
Period
s
Dir
26/11:30pm 17.1 WSW 10 16 1015.4 - 0.2 - Partly cloudy 10 - - - -
26/11:00pm 16.3 WSW 12 21 1015.8 - 0.2 Showers Cloudy 10 - - - -
26/10:30pm 17.1 WSW 12 17 1015.6 - 0.2 - Partly cloudy 10 - - - -
26/10:00pm 17.1 WSW 13 19 1016.0 - 0.2 - Partly cloudy 10 - - - -
26/09:30pm 16.9 WSW 12 17 1015.8 - 0.2 - Partly cloudy 10 - - - -
26/09:00pm 16.9 WSW 12 18 1015.7 - 0.2 - Partly cloudy 10 - - - -
26/08:30pm 17.2 WSW 13 20 1015.8 - 0.2 - Partly cloudy 10 - - - -
26/08:00pm 17.2 WSW 14 19 1015.9 - 0.2 - Partly cloudy 10 - - - -
26/07:30pm 17.3 WSW 13 18 1015.9 - 0.2 - Partly cloudy 10 - - - -
26/07:00pm 17.5 WSW 13 19 1015.9 - 0.2 - Partly cloudy 10 - - - -
26/06:30pm 17.2 WSW 14 21 1015.7 - 0.2 - Partly cloudy 10 - - - -
26/06:00pm 16.9 WSW 14 19 1015.4 - 0.2 - Partly cloudy 10 - - - -
26/05:33pm 16.6 WSW 15 25 1015.0 - 0.2 - Partly cloudy 10 - - - -
26/05:30pm 16.4 WSW 16 25 1015.0 - 0.2 - Partly cloudy 10 - - - -
26/05:25pm 16.8 WSW 15 25 1014.8 - 0.2 - Partly cloudy 10 - - - -
26/05:00pm 16.8 WSW 15 21 1014.6 - 0.2 - Partly cloudy 10 - - - -
26/04:30pm 17.1 WSW 15 23 1014.7 - 0.2 - Partly cloudy 10 - - - -
26/04:00pm 16.5 WSW 12 20 1014.4 - 0.2 - Partly cloudy 10 - - - -
26/03:30pm 17.2 WSW 13 19 1014.1 - 0.0 - Partly cloudy 10 - - - -
26/03:00pm 17.1 SW 16 20 1013.8 - 0.0 - Partly cloudy 10 - - - -
26/02:30pm 18.2 WSW 16 24 1013.7 - 0.0 - Partly cloudy 10 - - - -
26/02:00pm 18.0 W 14 23 1013.7 - 0.0 - Cloudy 10 - - - -
26/01:46pm 17.3 WSW 17 27 1013.5 - 0.0 - Partly cloudy 10 - - - -
26/01:30pm 19.0 WSW 15 19 1013.5 - 0.0 - Partly cloudy 10 - - - -
26/01:00pm 19.2 WSW 16 22 1013.6 - 0.0 - Partly cloudy 10 - - - -
26/12:58pm 19.3 WSW 16 26 1013.6 - 0.0 - Partly cloudy 10 - - - -
26/12:30pm 19.0 WSW 17 23 1013.8 - 0.0 - Partly cloudy 10 - - - -
26/12:00pm 18.4 WSW 16 22 1013.8 - 0.0 - Partly cloudy 10 - - - -
26/11:30am 19.0 WSW 17 21 1014.0 - 0.0 - Partly cloudy 10 - - - -
26/11:00am 18.8 WSW 17 25 1014.2 - 0.0 - Mostly cloudy 10 - - - -
26/10:30am 18.9 WSW 16 24 1014.2 - 0.0 - Partly cloudy 10 - - - -
26/10:00am 18.3 WSW 16 24 1014.4 - 0.0 - Partly cloudy 10 - - - -
26/09:30am 18.9 WSW 15 22 1014.4 - 0.0 - Partly cloudy 10 - - - -
26/09:01am 18.4 WSW 16 26 1014.7 - 0.0 - Partly cloudy 10 - - - -
26/09:00am 18.4 WSW 16 22 1014.7 - 0.0 - Partly cloudy 10 - - - -
26/08:30am 17.4 WSW 17 25 1014.7 - 0.0 - Partly cloudy 10 - - - -
26/08:15am 17.8 WSW 17 27 1014.6 - 0.0 - Partly cloudy 10 - - - -
26/08:00am 17.9 WSW 16 22 1014.4 - 0.8 - Partly cloudy 10 - - - -
26/07:30am 17.3 WSW 17 25 1014.0 - 0.8 - Partly cloudy 10 - - - -
26/07:00am 16.4 SW 15 22 1013.7 - 0.8 - Partly cloudy 10 - - - -
26/06:50am 16.2 WSW 18 29 1013.6 - 0.8 - Partly cloudy 6 - - - -
26/06:42am 16.6 WSW 19 29 1013.5 - 0.8 - Partly cloudy 9 - - - -
26/06:30am 17.1 WSW 15 22 1013.2 - 0.4 - Partly cloudy 10 - - - -
26/06:00am 16.0 WSW 13 18 1012.8 - 0.4 - Partly cloudy 10 - - - -
26/05:50am 15.8 WSW 14 19 1012.7 - 0.4 - Partly cloudy 10 - - - -
26/05:35am 15.6 WSW 16 27 1012.6 - 0.4 - Partly cloudy 6 - - - -
26/05:32am 16.1 WSW 17 27 1012.5 - 0.4 - Partly cloudy 8 - - - -
26/05:30am 16.8 WSW 15 22 1012.5 - 0.4 - Partly cloudy 10 - - - -
26/05:00am 16.9 WSW 17 25 1012.0 - 0.4 - Partly cloudy 10 - - - -
26/04:39am 16.5 WSW 17 27 1011.9 - 0.4 - Partly cloudy 10 - - - -
26/04:30am 17.0 WSW 18 26 1011.6 - 0.4 - Partly cloudy 10 - - - -
26/04:23am 17.4 WSW 15 25 1011.4 - 0.4 - Partly cloudy 10 - - - -
26/04:00am 17.1 WSW 16 25 1011.4 - 0.4 - Partly cloudy 10 - - - -
26/03:30am 17.1 WSW 18 26 1011.1 - 0.4 - Partly cloudy 10 - - - -
26/03:00am 16.9 WSW 16 26 1011.1 - 0.4 - Partly cloudy 10 - - - -
26/02:58am 16.9 WSW 16 26 1011.1 - 0.4 - Partly cloudy 10 - - - -
26/02:30am 17.2 WSW 17 25 1011.0 - 0.4 - Partly cloudy 10 - - - -
26/02:00am 17.1 WSW 17 27 1011.0 - 0.4 - Partly cloudy 10 - - - -
26/01:57am 17.0 WSW 16 26 1010.9 - 0.4 - Partly cloudy 10 - - - -
26/01:30am 17.5 W 20 27 1010.8 - 0.4 - Partly cloudy 10 - - - -
26/01:11am 17.4 WSW 19 29 1010.8 - 0.4 - Partly cloudy 10 - - - -
26/01:00am 17.7 W 20 29 1010.7 - 0.4 - Partly cloudy 10 - - - -
26/12:41am 17.7 W 18 29 1010.8 - 0.4 - Partly cloudy 10 - - - -
26/12:30am 17.1 W 15 24 1010.9 - 0.4 - Partly cloudy 10 - - - -
26/12:00am 17.5 W 20 26 1010.8 - 0.4 - Partly cloudy 10 - - - -
 
Date/Time
EST
Temp
°C
Wind Pressure Rain since
9am
mm
Weather Cloud Vis
km
Sea
Height
m
Swell
Dir  Spd
kts
Gust
kts
hPa Trend Height
m
Period
s
Dir
25/11:45pm 17.3 W 19 29 1010.8 - 0.4 - Partly cloudy 10 - - - -
25/11:30pm 17.3 W 19 28 1010.9 - 0.4 - Partly cloudy 10 - - - -
25/11:17pm 17.5 W 18 28 1011.0 - 0.4 - Partly cloudy 10 - - - -
25/11:00pm 17.5 W 19 27 1011.1 - 0.4 Drizzle Cloudy 10 - - - -
25/10:55pm 17.6 W 19 29 1011.0 - 0.4 - Partly cloudy 10 - - - -
25/10:30pm 17.5 W 20 29 1011.0 - 0.4 - Partly cloudy 10 - - - -
25/10:05pm 17.7 W 21 31 1010.8 - 0.4 - Partly cloudy 10 - - - -
25/10:00pm 18.0 W 19 27 1010.9 - 0.4 - Partly cloudy 10 - - - -

Other Formats:

Comma delimited format used in spreadsheet applications
http://www.bom.gov.au/fwo/IDN60701/IDN60701.94996.axf

JavaScript Object Notation format (JSON) in row-major order
http://www.bom.gov.au/fwo/IDN60701/IDN60701.94996.json